Accueil
METAR-TAF:

METAR-TAF

Aéroports :

Tripoli, Libye

Aéroport de Milaga

latitude: 32-54N, longitude: 13-17E, altitude: 11 m

Observation

Le bulletin a été fait il y a 59 minutes, à 11:50 UTC
Vent 7 kt de nord
Température 26°C
Humidité 58%
Pression 1020 hPa
Visibilité: 7000 m
Nuages épars à une hauteur de 2000 ft
Nuages épars à une hauteur de 7000 ft

METAR: HLLM 181150Z 35007KT 7000 SCT020 SCT070 26/17 Q1020

Heure: 14:49 (12:49 UTC)

Prévision

Le bulletin a été fait il y a 1 heure et 49 minutes, à 11:00 UTC
Prévision valable du 18 à 12 UTC au 19 à 12 UTC
Vent 2 kt de direction variable
Visibilité 10 km ou plus
Nuages épars à une hauteur de 2500 ft
Evoluant progressivement
du 18 à 22 UTC au 18 à 24 UTC
Vent 14 kt de sud-est
Visibilité: 8000 m

TAF: HLLM 181100Z 1812/1912 VRB02KT 9999 SCT025 BECMG 1822/1824 13014KT 8000 NSC

Observations et prévisions météorologiques de plus de 4000 aéroports (messages METAR et TAF).

Les stations disponibles sont représentées par des disques jaunes et rouges sur la carte.

Passer la souris dessus pour voir le nom de la station.

Cliquer dessus pour voir les observations et prévisions météorologiques.

Pour changer de carte: cliquez sur les boutons verts avec une croix noire pour zoomer, sur le bouton vert avec un tiret pour effectuer un zoom arrière, ou sur les flèches vertes pour les cartes adjacentes.


METAR-TAF: